Time;durP1;ratioP1;P1;durP2;ratioP2;P2;SDS_P1;SDS_P2;PMS_P1;PMS_P2;Temp;Humidity;BMP_temperature;BMP_pressure;BME280_temperature;BME280_humidity;BME280_pressure;Samples;Min_cycle;Max_cycle;Signal;HPM_P1;HPM_P2
2021/12/15 00:00:39;;;;;;;49.22;21.33;;;9.90;99.90;;;;;;5094737;28;20040;-78
2021/12/15 00:03:06;;;;;;;46.63;19.67;;;9.90;99.90;;;;;;5094537;28;20043;-78
2021/12/15 00:05:33;;;;;;;49.20;20.25;;;9.90;99.90;;;;;;5094720;28;20094;-78
2021/12/15 00:08:01;;;;;;;52.78;22.42;;;9.90;99.90;;;;;;5095159;28;20090;-78
2021/12/15 00:10:28;;;;;;;52.83;21.85;;;9.90;99.90;;;;;;5075918;28;20085;-78
2021/12/15 00:12:55;;;;;;;59.15;21.83;;;9.90;99.90;;;;;;5094413;28;20464;-78
2021/12/15 00:15:23;;;;;;;48.95;21.95;;;9.90;99.90;;;;;;5094029;28;20091;-78
2021/12/15 00:17:51;;;;;;;54.08;20.70;;;9.90;99.90;;;;;;5093509;28;20130;-78
2021/12/15 00:20:18;;;;;;;49.83;20.10;;;9.90;99.90;;;;;;5093426;28;20047;-78
2021/12/15 00:22:45;;;;;;;45.47;20.00;;;9.90;99.90;;;;;;5076844;28;20123;-78
2021/12/15 00:25:12;;;;;;;49.60;20.00;;;9.90;99.90;;;;;;5075373;28;20526;-78
2021/12/15 00:27:38;;;;;;;55.55;21.30;;;10.00;99.90;;;;;;5076848;28;20077;-78
2021/12/15 00:30:07;;;;;;;44.58;19.88;;;10.00;99.90;;;;;;5076777;28;20075;-78
2021/12/15 00:32:33;;;;;;;50.53;19.95;;;9.90;99.90;;;;;;5092122;28;20085;-79
2021/12/15 00:34:59;;;;;;;46.60;20.42;;;9.90;99.90;;;;;;5091824;28;20117;-78
2021/12/15 00:37:24;;;;;;;48.05;20.58;;;9.90;99.90;;;;;;5073941;28;20499;-79
2021/12/15 00:39:50;;;;;;;47.72;21.08;;;10.00;99.90;;;;;;5092032;28;20047;-79
2021/12/15 00:42:16;;;;;;;44.90;19.20;;;9.90;99.90;;;;;;5075024;28;20040;-78
2021/12/15 00:44:43;;;;;;;47.55;19.52;;;9.90;99.90;;;;;;5074856;28;20089;-79
2021/12/15 00:47:09;;;;;;;45.38;18.70;;;10.00;99.90;;;;;;5074449;28;20036;-79
2021/12/15 00:49:36;;;;;;;43.28;19.88;;;9.90;99.90;;;;;;5091727;28;20040;-79
2021/12/15 00:52:03;;;;;;;47.13;18.55;;;10.00;99.90;;;;;;5075149;28;20656;-79
2021/12/15 00:54:30;;;;;;;43.63;17.75;;;10.00;99.90;;;;;;5091096;28;20484;-79
2021/12/15 00:56:58;;;;;;;43.40;19.98;;;9.90;99.90;;;;;;5092713;28;20055;-79
2021/12/15 00:59:23;;;;;;;43.10;18.00;;;9.90;99.90;;;;;;5091915;28;20075;-79
2021/12/15 01:01:51;;;;;;;54.63;20.80;;;9.90;99.90;;;;;;5092843;28;20063;-79
2021/12/15 01:04:19;;;;;;;46.50;18.75;;;9.90;99.90;;;;;;5091020;28;20032;-79
2021/12/15 01:06:51;;;;;;;49.55;20.13;;;9.90;99.90;;;;;;5091757;28;20067;-79
2021/12/15 01:09:22;;;;;;;45.15;18.38;;;9.90;99.90;;;;;;5090108;28;20123;-79
2021/12/15 01:12:08;;;;;;;44.38;18.60;;;9.90;99.90;;;;;;5092102;28;20040;-79
2021/12/15 01:20:30;;;;;;;43.42;16.83;;;9.90;99.90;;;;;;5092059;28;20051;-79
2021/12/15 01:22:59;;;;;;;42.92;16.52;;;9.90;99.90;;;;;;5090876;28;20040;-79
2021/12/15 01:25:38;;;;;;;46.13;17.90;;;9.90;99.90;;;;;;5074420;28;20101;-79
2021/12/15 01:28:05;;;;;;;44.53;17.25;;;9.90;99.90;;;;;;5074751;28;20488;-79
2021/12/15 01:30:34;;;;;;;43.75;17.63;;;9.90;99.90;;;;;;5091740;28;20130;-79
2021/12/15 01:33:02;;;;;;;43.88;18.42;;;9.90;99.90;;;;;;5092155;28;20127;-79
2021/12/15 01:35:28;;;;;;;45.40;19.15;;;10.00;99.90;;;;;;5090748;28;20072;-79
2021/12/15 01:37:54;;;;;;;45.25;17.25;;;10.00;99.90;;;;;;5074701;28;20044;-79
2021/12/15 01:40:37;;;;;;;43.83;17.23;;;9.90;99.90;;;;;;5074553;28;20377;-79
2021/12/15 01:43:17;;;;;;;39.20;16.83;;;9.90;99.90;;;;;;5077454;28;20089;-79
2021/12/15 01:48:32;;;;;;;44.55;16.83;;;9.90;99.90;;;;;;5096307;28;20072;-79
2021/12/15 01:50:57;;;;;;;50.50;17.77;;;10.00;99.90;;;;;;5094599;28;20523;-79
2021/12/15 01:53:23;;;;;;;42.20;16.90;;;9.90;99.90;;;;;;5094641;28;20067;-79
2021/12/15 01:55:49;;;;;;;47.80;16.35;;;9.90;99.90;;;;;;5094514;28;20032;-79
2021/12/15 01:58:15;;;;;;;49.38;16.98;;;9.90;99.90;;;;;;5076907;28;20385;-79
2021/12/15 02:00:48;;;;;;;44.55;16.55;;;9.90;99.90;;;;;;5079014;28;20036;-79
2021/12/15 02:03:14;;;;;;;42.17;16.10;;;9.90;99.90;;;;;;5079791;28;20079;-79
2021/12/15 02:05:40;;;;;;;41.88;15.82;;;9.90;99.90;;;;;;5094620;28;20043;-79
2021/12/15 02:08:07;;;;;;;45.35;18.05;;;9.90;99.90;;;;;;5077429;28;20043;-79
2021/12/15 02:10:36;;;;;;;39.50;16.30;;;9.90;99.90;;;;;;5094389;28;20055;-79
2021/12/15 02:13:04;;;;;;;42.90;16.52;;;9.90;99.90;;;;;;5077722;28;20407;-79
2021/12/15 02:15:35;;;;;;;40.08;17.20;;;9.90;99.90;;;;;;5094504;28;20036;-79
2021/12/15 02:18:02;;;;;;;46.50;16.98;;;9.90;99.90;;;;;;5094563;28;20089;-79
2021/12/15 02:20:31;;;;;;;40.13;16.63;;;9.90;99.90;;;;;;5095529;28;20507;-79
2021/12/15 02:22:56;;;;;;;42.13;16.33;;;9.90;99.90;;;;;;5077231;28;20048;-79
2021/12/15 02:25:22;;;;;;;43.78;17.13;;;9.90;99.90;;;;;;5095175;28;20070;-79
2021/12/15 02:27:48;;;;;;;45.47;17.23;;;9.90;99.90;;;;;;5095635;28;20032;-79
2021/12/15 02:30:37;;;;;;;44.58;18.40;;;9.90;99.90;;;;;;5095947;28;20115;-79
2021/12/15 02:33:38;;;;;;;44.58;18.75;;;9.90;99.90;;;;;;5095770;28;20043;-79
2021/12/15 02:38:41;;;;;;;48.38;17.88;;;9.90;99.90;;;;;;5094696;28;20048;-79
2021/12/15 02:41:20;;;;;;;44.75;19.17;;;9.90;99.90;;;;;;5094616;28;20439;-79
2021/12/15 02:43:52;;;;;;;53.05;18.63;;;9.90;99.90;;;;;;5094693;28;20044;-79
2021/12/15 02:46:18;;;;;;;54.05;17.33;;;9.90;99.90;;;;;;5094199;28;20095;-79
2021/12/15 02:48:44;;;;;;;50.20;19.02;;;9.90;99.90;;;;;;5077329;28;20047;-79
2021/12/15 02:51:11;;;;;;;50.17;19.80;;;9.90;99.90;;;;;;5077234;28;20076;-79
2021/12/15 02:53:38;;;;;;;55.53;20.08;;;9.90;99.90;;;;;;5093779;28;20040;-79
2021/12/15 02:56:05;;;;;;;53.30;20.20;;;9.90;99.90;;;;;;5092733;28;20043;-79
2021/12/15 02:58:34;;;;;;;50.92;18.20;;;9.90;99.90;;;;;;5094239;28;20474;-79
2021/12/15 03:01:11;;;;;;;51.00;19.77;;;9.90;99.90;;;;;;5095056;28;20440;-79
2021/12/15 03:04:08;;;;;;;52.13;19.50;;;9.90;99.90;;;;;;5094465;28;20373;-79
2021/12/15 03:06:48;;;;;;;56.22;20.35;;;9.90;99.90;;;;;;5093274;28;20083;-79
2021/12/15 03:17:26;;;;;;;52.13;19.00;;;10.00;99.90;;;;;;5094432;28;20043;-79
2021/12/15 03:19:52;;;;;;;53.00;20.40;;;9.90;99.90;;;;;;5094395;28;20518;-79
2021/12/15 03:22:18;;;;;;;59.75;22.08;;;9.90;99.90;;;;;;5094481;28;20043;-79
2021/12/15 03:24:44;;;;;;;52.65;19.92;;;9.90;99.90;;;;;;5077193;28;20032;-79
2021/12/15 03:27:16;;;;;;;52.45;20.58;;;9.90;99.90;;;;;;5093333;28;20500;-79
2021/12/15 03:37:45;;;;;;;57.47;23.13;;;9.90;99.90;;;;;;5093702;28;20083;-79
2021/12/15 03:40:37;;;;;;;60.78;22.70;;;9.90;99.90;;;;;;5093626;28;20048;-79
2021/12/15 03:43:07;;;;;;;62.70;24.17;;;9.90;99.90;;;;;;5077035;28;20040;-79
2021/12/15 03:45:40;;;;;;;56.95;21.52;;;9.90;99.90;;;;;;5076415;28;20047;-79
2021/12/15 03:48:10;;;;;;;60.28;22.83;;;9.90;99.90;;;;;;5093443;28;20555;-79
2021/12/15 03:50:36;;;;;;;65.03;22.67;;;9.90;99.90;;;;;;5093802;28;20043;-79
2021/12/15 03:53:03;;;;;;;65.13;24.63;;;9.90;99.90;;;;;;5076952;28;20040;-79
2021/12/15 03:55:33;;;;;;;57.25;23.15;;;9.90;99.90;;;;;;5075467;28;20066;-79
2021/12/15 03:58:00;;;;;;;73.03;23.05;;;9.90;99.90;;;;;;5093363;28;20127;-79
2021/12/15 04:00:28;;;;;;;61.72;23.98;;;9.90;99.90;;;;;;5093313;28;20044;-79
2021/12/15 04:02:54;;;;;;;55.00;23.63;;;9.90;99.90;;;;;;5075825;28;20500;-79
2021/12/15 04:05:21;;;;;;;62.42;23.63;;;9.90;99.90;;;;;;5092567;28;20090;-79
2021/12/15 04:07:47;;;;;;;62.08;24.85;;;9.90;99.90;;;;;;5092582;28;20039;-79
2021/12/15 04:10:17;;;;;;;66.07;23.10;;;9.90;99.90;;;;;;5074990;28;20044;-79
2021/12/15 04:12:43;;;;;;;57.40;22.23;;;9.90;99.90;;;;;;5092154;28;20031;-79
2021/12/15 04:18:03;;;;;;;66.30;24.02;;;9.90;99.90;;;;;;5093421;28;20052;-79
2021/12/15 04:20:32;;;;;;;67.68;24.45;;;9.90;99.90;;;;;;5093147;28;20044;-79
2021/12/15 04:22:58;;;;;;;59.83;24.10;;;9.90;99.90;;;;;;5092424;28;20104;-79
2021/12/15 04:25:36;;;;;;;60.22;22.58;;;9.90;99.90;;;;;;5091955;28;20089;-79
2021/12/15 04:28:10;;;;;;;60.15;22.60;;;9.90;99.90;;;;;;5093308;28;20169;-79
2021/12/15 04:30:40;;;;;;;66.20;23.25;;;9.90;99.90;;;;;;5091496;28;20051;-79
2021/12/15 04:33:36;;;;;;;68.45;24.38;;;9.90;99.90;;;;;;5075016;28;20546;-79
2021/12/15 04:36:05;;;;;;;60.72;25.42;;;9.90;99.90;;;;;;5078402;28;20047;-79
2021/12/15 04:38:32;;;;;;;61.75;24.63;;;9.80;99.90;;;;;;5092201;28;20119;-79
2021/12/15 04:41:01;;;;;;;66.97;25.60;;;9.80;99.90;;;;;;5091990;28;20042;-79
2021/12/15 04:43:30;;;;;;;58.33;24.98;;;9.80;99.90;;;;;;5092286;28;20052;-78
2021/12/15 04:45:57;;;;;;;69.63;26.58;;;9.90;99.90;;;;;;5091564;28;20048;-79
2021/12/15 04:48:23;;;;;;;55.75;23.65;;;9.90;99.90;;;;;;5092300;28;20063;-79
2021/12/15 04:50:48;;;;;;;63.20;26.65;;;9.80;99.90;;;;;;5092343;28;20043;-79
2021/12/15 04:53:15;;;;;;;63.67;24.67;;;9.90;99.90;;;;;;5092603;28;20071;-79
2021/12/15 04:55:41;;;;;;;62.20;25.60;;;9.90;99.90;;;;;;5090985;28;20048;-79
2021/12/15 04:58:09;;;;;;;65.05;25.70;;;9.90;99.90;;;;;;5092353;28;20067;-79
2021/12/15 05:00:41;;;;;;;62.97;25.23;;;9.80;99.90;;;;;;5091325;28;20194;-79
2021/12/15 05:03:06;;;;;;;64.88;25.58;;;9.80;99.90;;;;;;5091006;28;20042;-79
2021/12/15 05:05:34;;;;;;;59.25;25.20;;;9.80;99.90;;;;;;5091121;28;20126;-79
2021/12/15 05:08:00;;;;;;;70.47;26.23;;;9.90;99.90;;;;;;5091461;28;20044;-79
2021/12/15 05:10:26;;;;;;;63.58;25.05;;;9.80;99.90;;;;;;5091827;28;20108;-79
2021/12/15 05:12:52;;;;;;;64.65;25.67;;;9.80;99.90;;;;;;5091663;28;20507;-79
2021/12/15 05:15:18;;;;;;;63.85;27.10;;;9.80;99.90;;;;;;5091534;28;20036;-79
2021/12/15 05:17:44;;;;;;;64.85;26.30;;;9.80;99.90;;;;;;5090996;28;20062;-79
2021/12/15 05:20:10;;;;;;;60.53;26.63;;;9.90;99.90;;;;;;5074138;28;20055;-79
2021/12/15 05:22:37;;;;;;;67.60;26.35;;;9.90;99.90;;;;;;5090424;28;20040;-79
2021/12/15 05:25:04;;;;;;;64.97;27.23;;;9.90;99.90;;;;;;5090896;28;20051;-79
2021/12/15 05:27:29;;;;;;;66.45;26.55;;;9.80;99.90;;;;;;5091161;28;20039;-79
2021/12/15 05:29:57;;;;;;;65.75;25.67;;;9.90;99.90;;;;;;5091594;28;20047;-78
2021/12/15 05:32:23;;;;;;;61.30;26.83;;;9.90;99.90;;;;;;5091782;28;20141;-79
2021/12/15 05:34:56;;;;;;;57.33;23.48;;;9.90;99.90;;;;;;5091153;28;20036;-78
2021/12/15 05:37:22;;;;;;;71.95;27.25;;;9.90;99.90;;;;;;5090834;28;20044;-79
2021/12/15 05:39:50;;;;;;;66.82;26.92;;;9.80;99.90;;;;;;5074686;28;20040;-79
2021/12/15 05:42:19;;;;;;;71.25;28.15;;;9.90;99.90;;;;;;5074744;28;20429;-79
2021/12/15 05:44:45;;;;;;;64.85;26.75;;;9.90;99.90;;;;;;5091875;28;20089;-79
2021/12/15 05:47:11;;;;;;;70.22;26.63;;;9.90;99.90;;;;;;5091956;28;20392;-79
2021/12/15 05:49:37;;;;;;;68.15;28.13;;;9.90;99.90;;;;;;5074624;28;20047;-78
2021/12/15 05:52:04;;;;;;;71.88;28.55;;;9.80;99.90;;;;;;5090721;28;20448;-78
2021/12/15 05:54:30;;;;;;;66.57;25.92;;;9.90;99.90;;;;;;5073522;28;20040;-79
2021/12/15 05:56:56;;;;;;;57.90;24.98;;;9.90;99.90;;;;;;5090960;28;20055;-78
2021/12/15 05:59:22;;;;;;;62.85;26.63;;;9.90;99.90;;;;;;5091880;28;20075;-78
2021/12/15 06:01:48;;;;;;;61.00;24.67;;;9.90;99.90;;;;;;5090272;28;20055;-78
2021/12/15 06:04:14;;;;;;;62.08;25.02;;;9.90;99.90;;;;;;5073603;28;20126;-78
2021/12/15 06:06:40;;;;;;;62.30;26.58;;;9.90;99.90;;;;;;5090541;28;20483;-78
2021/12/15 06:09:08;;;;;;;55.35;24.50;;;9.90;99.90;;;;;;5090903;28;20076;-78
2021/12/15 06:11:35;;;;;;;66.78;25.60;;;9.90;99.90;;;;;;5093441;28;20423;-80
2021/12/15 06:14:01;;;;;;;67.13;26.05;;;9.90;99.90;;;;;;5075710;28;20042;-80
2021/12/15 06:16:27;;;;;;;71.88;27.27;;;9.90;99.90;;;;;;5074566;28;20044;-80
2021/12/15 06:18:53;;;;;;;58.03;24.67;;;9.90;99.90;;;;;;5092524;28;20563;-80
2021/12/15 06:21:20;;;;;;;55.58;24.67;;;9.90;99.90;;;;;;5078416;28;20036;-80
2021/12/15 06:23:47;;;;;;;66.65;25.05;;;9.90;99.90;;;;;;5083185;28;20396;-80
2021/12/15 06:26:14;;;;;;;67.18;26.33;;;9.90;99.90;;;;;;5096062;28;20050;-80
2021/12/15 06:28:40;;;;;;;60.17;24.92;;;9.90;99.90;;;;;;5094603;28;20517;-80
2021/12/15 06:31:07;;;;;;;62.67;24.40;;;9.90;99.90;;;;;;5094228;28;20071;-80
2021/12/15 06:33:34;;;;;;;64.95;25.02;;;9.90;99.90;;;;;;5094661;28;20496;-80
2021/12/15 06:36:02;;;;;;;64.10;24.08;;;9.80;99.90;;;;;;5096872;28;20060;-80
2021/12/15 06:38:35;;;;;;;60.83;25.05;;;9.80;99.90;;;;;;5098222;28;20040;-80
2021/12/15 06:41:02;;;;;;;67.05;26.67;;;9.90;99.90;;;;;;5096405;28;20538;-81
2021/12/15 06:43:28;;;;;;;65.22;24.55;;;9.80;99.90;;;;;;5096219;28;20044;-78
2021/12/15 06:59:16;;;;;;;66.85;25.10;;;9.80;99.90;;;;;;5094856;28;20488;-78
2021/12/15 07:01:42;;;;;;;61.25;24.17;;;9.90;99.90;;;;;;5094627;28;20085;-78
2021/12/15 07:04:08;;;;;;;66.43;26.40;;;9.90;99.90;;;;;;5077882;28;20044;-78
2021/12/15 07:06:33;;;;;;;69.80;25.15;;;9.90;99.90;;;;;;5078503;28;20044;-78
2021/12/15 07:08:59;;;;;;;59.97;25.60;;;9.90;99.90;;;;;;5077171;28;20036;-78
2021/12/15 07:11:25;;;;;;;57.88;22.52;;;9.90;99.90;;;;;;5094299;28;20127;-78
2021/12/15 07:13:50;;;;;;;58.22;22.42;;;9.90;99.90;;;;;;5077770;28;20385;-78
2021/12/15 07:16:18;;;;;;;56.78;23.23;;;9.90;99.90;;;;;;5094550;28;20100;-79
2021/12/15 07:21:21;;;;;;;62.08;25.25;;;9.90;99.90;;;;;;5094563;28;20064;-79
2021/12/15 07:23:49;;;;;;;56.80;23.48;;;9.90;99.90;;;;;;5094687;28;20054;-78
2021/12/15 07:26:15;;;;;;;59.28;21.70;;;9.90;99.90;;;;;;5094322;28;20040;-78
2021/12/15 07:28:40;;;;;;;64.57;23.20;;;9.90;99.90;;;;;;5094193;28;20561;-78
2021/12/15 07:31:08;;;;;;;56.35;22.77;;;9.90;99.90;;;;;;5078409;28;20051;-78
2021/12/15 07:33:34;;;;;;;60.45;24.42;;;9.90;99.90;;;;;;5095148;28;20043;-78
2021/12/15 07:36:01;;;;;;;65.72;22.92;;;9.90;99.90;;;;;;5094013;28;20078;-78
2021/12/15 07:38:27;;;;;;;57.95;21.73;;;9.80;99.90;;;;;;5079296;28;20519;-78
2021/12/15 07:40:53;;;;;;;57.20;24.70;;;9.80;99.90;;;;;;5077547;28;20043;-78
2021/12/15 07:43:24;;;;;;;60.25;23.35;;;9.90;99.90;;;;;;5076799;28;20039;-78
2021/12/15 07:45:55;;;;;;;57.90;22.33;;;9.90;99.90;;;;;;5094018;28;20078;-78
2021/12/15 07:48:22;;;;;;;56.10;22.33;;;9.90;99.90;;;;;;5094370;28;20403;-79
2021/12/15 07:50:52;;;;;;;56.38;22.25;;;9.90;99.90;;;;;;5093676;28;20503;-78
2021/12/15 07:53:19;;;;;;;56.10;21.70;;;9.90;99.90;;;;;;5076548;28;20506;-78
2021/12/15 07:55:46;;;;;;;56.80;21.55;;;9.90;99.90;;;;;;5076873;28;20047;-78
2021/12/15 07:58:12;;;;;;;56.20;22.17;;;9.90;99.90;;;;;;5094006;28;20047;-78
2021/12/15 08:00:40;;;;;;;55.47;22.65;;;9.90;99.90;;;;;;5093925;28;20032;-79
2021/12/15 08:03:06;;;;;;;56.42;21.05;;;9.90;99.90;;;;;;5076337;28;20043;-79
2021/12/15 08:05:32;;;;;;;57.22;22.08;;;9.90;99.90;;;;;;5076927;28;20040;-79
2021/12/15 08:07:58;;;;;;;54.97;21.58;;;9.90;99.90;;;;;;5093306;28;20036;-78
2021/12/15 08:10:23;;;;;;;49.92;22.38;;;9.90;99.90;;;;;;5095523;28;20042;-79
2021/12/15 08:12:49;;;;;;;57.08;22.25;;;9.90;99.90;;;;;;5094464;28;20079;-79
2021/12/15 08:15:17;;;;;;;51.78;21.73;;;9.90;99.90;;;;;;5094255;28;20377;-79
2021/12/15 08:17:44;;;;;;;50.58;20.25;;;9.90;99.90;;;;;;5076475;28;20044;-79
2021/12/15 08:20:12;;;;;;;53.42;20.10;;;9.90;99.90;;;;;;5094018;28;20040;-79
2021/12/15 08:22:38;;;;;;;49.45;20.23;;;9.90;99.90;;;;;;5094424;28;20055;-79
2021/12/15 08:25:06;;;;;;;48.58;20.95;;;9.90;99.90;;;;;;5076439;28;20032;-79
2021/12/15 08:27:32;;;;;;;56.22;21.77;;;9.90;99.90;;;;;;5093956;28;20637;-79
2021/12/15 08:29:57;;;;;;;52.42;22.13;;;9.90;99.90;;;;;;5095226;28;20071;-79
2021/12/15 08:32:23;;;;;;;45.13;20.15;;;10.00;99.90;;;;;;5093149;28;20399;-78
2021/12/15 08:34:49;;;;;;;53.33;21.08;;;10.00;99.90;;;;;;5093612;28;20043;-78
2021/12/15 08:37:15;;;;;;;50.08;19.80;;;10.00;99.90;;;;;;5092804;28;20032;-78
2021/12/15 08:39:43;;;;;;;51.17;20.45;;;10.00;99.90;;;;;;5093418;28;20510;-78
2021/12/15 08:42:10;;;;;;;46.72;20.00;;;10.00;99.90;;;;;;5093154;28;20048;-78
2021/12/15 08:44:36;;;;;;;59.28;22.65;;;10.10;99.90;;;;;;5093281;28;20039;-79
2021/12/15 08:47:02;;;;;;;51.05;20.65;;;10.00;99.90;;;;;;5075886;28;20035;-78
2021/12/15 08:49:28;;;;;;;49.08;19.25;;;10.10;99.90;;;;;;5092908;28;20675;-78
2021/12/15 08:51:54;;;;;;;48.50;19.92;;;10.10;99.90;;;;;;5077088;28;20050;-78
2021/12/15 08:54:22;;;;;;;48.75;18.98;;;10.10;99.90;;;;;;5077064;28;20119;-79
2021/12/15 08:56:50;;;;;;;53.20;21.73;;;10.10;99.90;;;;;;5093712;28;20066;-79
2021/12/15 08:59:16;;;;;;;55.30;21.27;;;10.10;99.90;;;;;;5093332;28;20040;-79
2021/12/15 09:01:43;;;;;;;55.40;20.77;;;10.20;99.90;;;;;;5093134;28;20296;-78
2021/12/15 09:04:09;;;;;;;50.10;19.83;;;10.10;99.90;;;;;;5093907;28;20056;-78
2021/12/15 09:06:35;;;;;;;43.05;19.75;;;10.20;99.90;;;;;;5075665;28;20453;-78
2021/12/15 09:09:03;;;;;;;54.55;20.85;;;10.20;99.90;;;;;;5092579;28;20054;-78
2021/12/15 09:11:29;;;;;;;43.45;19.60;;;10.20;99.90;;;;;;5075908;28;20066;-78
2021/12/15 09:13:57;;;;;;;49.50;20.90;;;10.20;99.90;;;;;;5092465;28;20484;-78
2021/12/15 09:16:24;;;;;;;48.38;20.30;;;10.30;99.90;;;;;;5092760;28;20113;-78
2021/12/15 09:18:51;;;;;;;50.22;18.95;;;10.30;99.90;;;;;;5092351;28;20087;-79
2021/12/15 09:21:19;;;;;;;50.92;19.58;;;10.30;99.90;;;;;;5092387;28;20044;-79
2021/12/15 09:23:45;;;;;;;48.83;20.05;;;10.40;99.90;;;;;;5074734;28;20050;-79
2021/12/15 09:26:11;;;;;;;48.05;19.70;;;10.40;99.90;;;;;;5091109;28;20076;-79
2021/12/15 09:28:37;;;;;;;60.08;21.75;;;10.40;99.90;;;;;;5090901;28;20032;-78
2021/12/15 09:31:05;;;;;;;49.08;19.85;;;10.40;99.90;;;;;;5073968;28;20097;-79
2021/12/15 09:33:33;;;;;;;49.42;18.42;;;10.50;99.90;;;;;;5091398;28;20380;-80
2021/12/15 09:36:00;;;;;;;50.38;20.92;;;10.50;99.90;;;;;;5090903;28;20063;-79
2021/12/15 09:38:27;;;;;;;51.75;18.98;;;10.50;99.90;;;;;;5091273;28;20091;-79
2021/12/15 09:40:55;;;;;;;47.78;19.58;;;10.50;99.90;;;;;;5091160;28;20131;-78
2021/12/15 09:43:21;;;;;;;45.50;18.65;;;10.50;99.90;;;;;;5073879;28;20048;-79
2021/12/15 09:56:50;;;;;;;42.63;18.38;;;10.50;99.90;;;;;;5090906;28;20051;-79
2021/12/15 10:04:50;;;;;;;55.33;20.63;;;10.50;99.90;;;;;;5091063;28;20470;-79
2021/12/15 10:18:07;;;;;;;38.55;15.52;;;10.50;99.90;;;;;;5095868;28;20101;-79
2021/12/15 10:20:37;;;;;;;41.08;17.98;;;10.50;99.90;;;;;;5096248;28;20055;-79
2021/12/15 10:23:05;;;;;;;39.45;16.20;;;10.50;99.90;;;;;;5096037;28;20518;-80
2021/12/15 10:25:45;;;;;;;42.95;17.00;;;10.50;99.90;;;;;;5079436;28;20518;-79
2021/12/15 10:28:27;;;;;;;36.05;16.02;;;10.60;99.90;;;;;;5096187;28;20428;-80
2021/12/15 10:30:59;;;;;;;;;;;10.60;99.90;;;;;;5095870;28;20044;-79
2021/12/15 10:33:32;;;;;;;38.15;15.63;;;10.60;99.90;;;;;;5095332;28;20299;-79
2021/12/15 10:36:01;;;;;;;42.33;15.98;;;10.60;99.90;;;;;;5095130;28;20043;-79
2021/12/15 10:38:41;;;;;;;37.63;15.35;;;10.70;99.90;;;;;;5095063;28;20500;-79
2021/12/15 10:41:25;;;;;;;44.53;17.00;;;10.70;99.90;;;;;;5095219;28;20308;-80
2021/12/15 10:44:01;;;;;;;39.20;17.67;;;10.70;99.90;;;;;;5077967;28;20043;-80
2021/12/15 10:46:36;;;;;;;45.15;17.83;;;10.80;99.90;;;;;;5078772;28;20130;-79
2021/12/15 10:49:04;;;;;;;43.00;18.13;;;10.90;99.90;;;;;;5097858;28;20065;-79
2021/12/15 10:51:51;;;;;;;37.70;16.85;;;10.80;99.90;;;;;;5096618;28;20046;-79
2021/12/15 10:54:27;;;;;;;41.28;17.02;;;10.90;99.90;;;;;;5080333;28;20060;-79
2021/12/15 10:57:04;;;;;;;41.40;17.83;;;10.90;99.90;;;;;;5096227;28;20135;-79
2021/12/15 10:59:37;;;;;;;34.30;16.02;;;10.90;99.90;;;;;;5095726;28;20044;-79
2021/12/15 11:02:12;;;;;;;42.53;15.85;;;11.00;99.90;;;;;;5097518;28;20438;-78
2021/12/15 11:05:01;;;;;;;40.38;16.10;;;11.00;99.90;;;;;;5095587;28;20040;-79
2021/12/15 11:07:36;;;;;;;35.42;15.63;;;11.00;99.90;;;;;;5081851;28;20047;-78
2021/12/15 11:10:12;;;;;;;41.33;16.50;;;11.10;99.90;;;;;;5095359;28;20122;-78
2021/12/15 11:12:43;;;;;;;39.05;16.45;;;11.10;99.90;;;;;;5095436;28;20484;-78
2021/12/15 11:15:23;;;;;;;38.47;16.67;;;11.00;99.90;;;;;;5096835;28;20040;-78
2021/12/15 11:18:19;;;;;;;40.60;16.98;;;11.00;99.90;;;;;;5095687;28;20366;-79
2021/12/15 11:20:48;;;;;;;36.78;16.52;;;11.00;99.90;;;;;;5089857;28;20052;-79
2021/12/15 11:23:19;;;;;;;41.33;15.63;;;11.10;99.90;;;;;;5078038;28;20059;-79
2021/12/15 11:25:52;;;;;;;42.20;16.55;;;11.00;99.90;;;;;;5096761;28;20054;-79
2021/12/15 11:28:32;;;;;;;36.53;16.92;;;11.00;99.90;;;;;;5096296;28;20060;-79
2021/12/15 11:31:03;;;;;;;36.33;17.33;;;11.00;99.90;;;;;;5095975;28;20054;-79
2021/12/15 11:33:45;;;;;;;37.25;16.08;;;11.00;99.90;;;;;;5077416;28;20081;-79
2021/12/15 11:36:27;;;;;;;32.97;15.85;;;10.90;99.90;;;;;;5094606;28;20044;-79
2021/12/15 11:39:02;;;;;;;;;;;10.90;99.90;;;;;;5078667;28;20040;-79
2021/12/15 11:41:37;;;;;;;36.03;14.73;;;10.80;99.90;;;;;;5093089;28;19916;-78
2021/12/15 11:44:09;;;;;;;41.22;15.68;;;10.80;99.90;;;;;;5093602;28;20119;-80
2021/12/15 11:47:02;;;;;;;44.67;16.38;;;10.80;99.90;;;;;;5076763;28;20161;-80
2021/12/15 11:49:31;;;;;;;34.53;14.13;;;10.90;99.90;;;;;;5084053;28;20060;-79
2021/12/15 11:52:09;;;;;;;31.70;14.65;;;10.90;99.90;;;;;;5076358;28;20055;-80
2021/12/15 11:54:36;;;;;;;41.63;16.20;;;10.90;99.90;;;;;;5092909;28;20044;-79
2021/12/15 11:57:04;;;;;;;32.03;15.57;;;11.00;99.90;;;;;;5092854;28;20055;-79
2021/12/15 11:59:49;;;;;;;34.63;14.98;;;11.00;99.90;;;;;;5076474;28;20434;-78
2021/12/15 12:02:24;;;;;;;29.95;14.40;;;11.00;99.90;;;;;;5092765;28;20054;-78
2021/12/15 12:04:52;;;;;;;27.38;12.05;;;11.10;99.90;;;;;;5092246;28;20488;-78
2021/12/15 12:07:28;;;;;;;27.92;13.20;;;11.10;99.90;;;;;;5092345;28;20047;-79
2021/12/15 12:10:03;;;;;;;34.63;13.25;;;11.10;99.90;;;;;;5075638;28;20040;-78
2021/12/15 12:12:37;;;;;;;25.33;10.55;;;11.10;99.90;;;;;;5092752;28;20040;-79
2021/12/15 12:15:06;;;;;;;26.27;10.73;;;11.20;99.90;;;;;;5092586;28;20040;-79
2021/12/15 12:17:36;;;;;;;29.00;11.85;;;11.20;99.90;;;;;;5093012;28;20515;-78
2021/12/15 12:20:15;;;;;;;31.55;12.65;;;11.20;99.90;;;;;;5093419;28;20072;-80
2021/12/15 12:22:43;;;;;;;24.23;10.57;;;11.20;99.90;;;;;;5094461;28;20045;-79
2021/12/15 12:25:36;;;;;;;26.92;11.60;;;11.10;99.90;;;;;;5092565;28;20498;-79
2021/12/15 12:28:04;;;;;;;26.20;12.15;;;11.10;99.90;;;;;;5091946;28;20052;-79
2021/12/15 12:30:35;;;;;;;23.33;11.23;;;11.10;99.90;;;;;;5092196;28;20054;-79
2021/12/15 12:33:04;;;;;;;32.92;12.63;;;11.10;99.90;;;;;;5091809;28;20054;-79
2021/12/15 12:35:32;;;;;;;25.17;11.50;;;11.00;99.90;;;;;;5092962;28;20040;-79
2021/12/15 12:38:05;;;;;;;26.00;10.90;;;11.10;99.90;;;;;;5093428;28;20083;-79
2021/12/15 12:40:38;;;;;;;22.08;11.40;;;11.10;99.90;;;;;;5092606;28;20051;-79
2021/12/15 12:43:26;;;;;;;24.50;10.63;;;11.10;99.90;;;;;;5092802;28;20054;-79
2021/12/15 12:46:07;;;;;;;25.75;11.15;;;11.20;99.90;;;;;;5076225;28;20055;-78
2021/12/15 13:00:20;;;;;;;27.85;9.32;;;11.00;99.90;;;;;;5091275;28;20054;-78
2021/12/15 13:02:50;;;;;;;27.90;11.73;;;11.00;99.90;;;;;;5091218;28;20048;-80
2021/12/15 13:05:35;;;;;;;27.98;11.13;;;10.90;99.90;;;;;;5090809;28;20119;-78
2021/12/15 13:08:09;;;;;;;28.55;11.90;;;10.90;99.90;;;;;;5091221;28;20087;-78
2021/12/15 13:10:57;;;;;;;27.42;10.23;;;10.90;99.90;;;;;;5090868;28;20506;-78
2021/12/15 13:13:35;;;;;;;22.73;9.00;;;10.80;99.90;;;;;;5092366;28;20126;-78
2021/12/15 13:16:38;;;;;;;15.80;7.70;;;10.80;99.90;;;;;;5090711;28;20084;-78
2021/12/15 13:19:15;;;;;;;18.60;8.50;;;10.80;99.90;;;;;;5092359;28;20052;-81
2021/12/15 13:22:19;;;;;;;18.85;7.18;;;10.80;99.90;;;;;;5098853;28;20172;-81
2021/12/15 13:31:04;;;;;;;17.02;6.60;;;10.80;99.90;;;;;;5101452;28;20392;-81
2021/12/15 13:33:34;;;;;;;17.08;6.38;;;10.80;99.90;;;;;;5082825;28;20165;-81
2021/12/15 13:36:18;;;;;;;16.02;6.30;;;10.80;99.90;;;;;;5103782;28;20087;-81
2021/12/15 13:38:46;;;;;;;18.65;7.05;;;10.80;99.90;;;;;;5102753;28;20028;-81
2021/12/15 13:41:25;;;;;;;17.02;6.22;;;10.80;99.90;;;;;;5101326;28;20062;-81
2021/12/15 13:44:05;;;;;;;18.15;6.40;;;10.80;99.90;;;;;;5099938;28;20095;-81
2021/12/15 13:46:39;;;;;;;12.95;6.30;;;10.80;99.90;;;;;;5083975;28;20050;-81
2021/12/15 13:49:08;;;;;;;15.25;6.60;;;10.80;99.90;;;;;;5101374;28;20140;-81
2021/12/15 13:52:11;;;;;;;11.18;4.88;;;10.80;99.90;;;;;;5098458;28;20048;-81
2021/12/15 13:54:37;;;;;;;11.23;4.15;;;10.70;99.90;;;;;;5099678;28;20040;-81
2021/12/15 13:57:18;;;;;;;11.27;4.53;;;10.70;99.90;;;;;;5078843;28;20118;-80
2021/12/15 14:00:12;;;;;;;7.68;4.15;;;10.80;99.90;;;;;;5103331;28;20512;-81
2021/12/15 14:02:41;;;;;;;12.27;4.57;;;10.70;99.90;;;;;;5088109;28;20087;-81
2021/12/15 14:05:07;;;;;;;7.68;3.38;;;10.70;99.90;;;;;;5085847;28;20108;-81
2021/12/15 14:07:46;;;;;;;10.40;4.35;;;10.70;99.90;;;;;;5085708;28;20044;-81
2021/12/15 14:10:17;;;;;;;9.68;4.25;;;10.60;99.90;;;;;;5085331;28;20503;-80
2021/12/15 14:12:46;;;;;;;4.78;2.85;;;10.60;99.90;;;;;;5101109;28;20097;-80
2021/12/15 14:15:36;;;;;;;4.88;2.60;;;10.60;99.90;;;;;;5098962;28;20036;-79
2021/12/15 14:18:19;;;;;;;14.60;3.72;;;10.60;99.90;;;;;;5095419;28;20055;-79
2021/12/15 14:20:50;;;;;;;10.45;3.80;;;10.60;99.90;;;;;;5095612;28;20420;-79